sensor_id;sensor_type;location;lat;lon;timestamp;P1;durP1;ratioP1;P2;durP2;ratioP2
12052;SDS011;6087;48.982;12.064;2023-10-09T00:01:39;4.57;;;2.97;;
12052;SDS011;6087;48.982;12.064;2023-10-09T00:04:09;3.80;;;3.13;;
12052;SDS011;6087;48.982;12.064;2023-10-09T00:06:37;5.03;;;2.88;;
12052;SDS011;6087;48.982;12.064;2023-10-09T00:09:04;3.58;;;3.05;;
12052;SDS011;6087;48.982;12.064;2023-10-09T00:11:50;3.78;;;3.30;;
12052;SDS011;6087;48.982;12.064;2023-10-09T00:14:22;6.20;;;3.38;;
12052;SDS011;6087;48.982;12.064;2023-10-09T00:16:49;6.32;;;3.70;;
12052;SDS011;6087;48.982;12.064;2023-10-09T00:19:22;5.57;;;3.38;;
12052;SDS011;6087;48.982;12.064;2023-10-09T00:21:55;3.85;;;3.22;;
12052;SDS011;6087;48.982;12.064;2023-10-09T00:24:23;3.58;;;2.85;;
12052;SDS011;6087;48.982;12.064;2023-10-09T00:26:49;5.07;;;3.22;;
12052;SDS011;6087;48.982;12.064;2023-10-09T00:29:21;5.55;;;3.30;;
12052;SDS011;6087;48.982;12.064;2023-10-09T00:31:49;4.30;;;3.35;;
12052;SDS011;6087;48.982;12.064;2023-10-09T00:34:20;3.20;;;2.95;;
12052;SDS011;6087;48.982;12.064;2023-10-09T00:36:51;3.53;;;3.20;;
12052;SDS011;6087;48.982;12.064;2023-10-09T00:39:19;6.18;;;3.50;;
12052;SDS011;6087;48.982;12.064;2023-10-09T00:42:06;3.45;;;2.92;;
12052;SDS011;6087;48.982;12.064;2023-10-09T00:44:37;3.58;;;3.25;;
12052;SDS011;6087;48.982;12.064;2023-10-09T00:47:05;4.47;;;3.33;;
12052;SDS011;6087;48.982;12.064;2023-10-09T00:49:47;4.85;;;3.35;;
12052;SDS011;6087;48.982;12.064;2023-10-09T00:52:28;4.15;;;2.80;;
12052;SDS011;6087;48.982;12.064;2023-10-09T00:55:06;3.70;;;3.33;;
12052;SDS011;6087;48.982;12.064;2023-10-09T00:57:39;8.52;;;3.47;;
12052;SDS011;6087;48.982;12.064;2023-10-09T01:00:09;4.78;;;3.70;;
12052;SDS011;6087;48.982;12.064;2023-10-09T01:02:56;3.47;;;2.65;;
12052;SDS011;6087;48.982;12.064;2023-10-09T01:05:45;4.20;;;3.60;;
12052;SDS011;6087;48.982;12.064;2023-10-09T01:08:17;4.53;;;3.40;;
12052;SDS011;6087;48.982;12.064;2023-10-09T01:10:53;6.50;;;3.25;;
12052;SDS011;6087;48.982;12.064;2023-10-09T01:13:24;4.85;;;3.95;;
12052;SDS011;6087;48.982;12.064;2023-10-09T01:16:04;5.18;;;3.42;;
12052;SDS011;6087;48.982;12.064;2023-10-09T01:18:38;5.28;;;3.78;;
12052;SDS011;6087;48.982;12.064;2023-10-09T01:21:07;6.38;;;3.92;;
12052;SDS011;6087;48.982;12.064;2023-10-09T01:23:39;5.80;;;4.05;;
12052;SDS011;6087;48.982;12.064;2023-10-09T01:26:23;4.32;;;3.90;;
12052;SDS011;6087;48.982;12.064;2023-10-09T01:28:51;4.15;;;3.80;;
12052;SDS011;6087;48.982;12.064;2023-10-09T01:31:23;4.90;;;4.30;;
12052;SDS011;6087;48.982;12.064;2023-10-09T01:33:51;5.70;;;4.53;;
12052;SDS011;6087;48.982;12.064;2023-10-09T01:36:20;5.60;;;4.30;;
12052;SDS011;6087;48.982;12.064;2023-10-09T01:38:58;4.60;;;4.00;;
12052;SDS011;6087;48.982;12.064;2023-10-09T01:41:25;7.40;;;3.67;;
12052;SDS011;6087;48.982;12.064;2023-10-09T01:43:53;4.70;;;4.18;;
12052;SDS011;6087;48.982;12.064;2023-10-09T01:46:28;5.25;;;3.95;;
12052;SDS011;6087;48.982;12.064;2023-10-09T01:48:58;6.43;;;3.67;;
12052;SDS011;6087;48.982;12.064;2023-10-09T01:51:33;6.50;;;4.00;;
12052;SDS011;6087;48.982;12.064;2023-10-09T01:54:03;4.22;;;3.78;;
12052;SDS011;6087;48.982;12.064;2023-10-09T01:56:30;5.45;;;4.53;;
12052;SDS011;6087;48.982;12.064;2023-10-09T01:59:02;6.22;;;4.00;;
12052;SDS011;6087;48.982;12.064;2023-10-09T02:01:31;6.18;;;4.13;;
12052;SDS011;6087;48.982;12.064;2023-10-09T02:03:58;5.70;;;4.28;;
12052;SDS011;6087;48.982;12.064;2023-10-09T02:06:31;5.07;;;4.32;;
12052;SDS011;6087;48.982;12.064;2023-10-09T02:08:58;6.28;;;4.65;;
12052;SDS011;6087;48.982;12.064;2023-10-09T02:11:26;8.55;;;4.40;;
12052;SDS011;6087;48.982;12.064;2023-10-09T02:14:03;4.95;;;4.38;;
12052;SDS011;6087;48.982;12.064;2023-10-09T02:16:44;5.05;;;4.30;;
12052;SDS011;6087;48.982;12.064;2023-10-09T02:19:27;5.95;;;4.20;;
12052;SDS011;6087;48.982;12.064;2023-10-09T02:22:00;4.70;;;3.90;;
12052;SDS011;6087;48.982;12.064;2023-10-09T02:24:37;9.65;;;4.32;;
12052;SDS011;6087;48.982;12.064;2023-10-09T02:27:18;4.28;;;3.90;;
12052;SDS011;6087;48.982;12.064;2023-10-09T02:30:02;5.60;;;4.13;;
12052;SDS011;6087;48.982;12.064;2023-10-09T02:32:40;5.97;;;4.53;;
12052;SDS011;6087;48.982;12.064;2023-10-09T02:35:08;5.68;;;3.88;;
12052;SDS011;6087;48.982;12.064;2023-10-09T02:37:45;4.60;;;3.97;;
12052;SDS011;6087;48.982;12.064;2023-10-09T02:40:11;4.57;;;3.95;;
12052;SDS011;6087;48.982;12.064;2023-10-09T02:42:49;5.55;;;4.57;;
12052;SDS011;6087;48.982;12.064;2023-10-09T02:45:16;4.55;;;4.10;;
12052;SDS011;6087;48.982;12.064;2023-10-09T02:47:44;3.83;;;3.53;;
12052;SDS011;6087;48.982;12.064;2023-10-09T02:50:13;4.05;;;3.67;;
12052;SDS011;6087;48.982;12.064;2023-10-09T02:52:53;6.63;;;3.83;;
12052;SDS011;6087;48.982;12.064;2023-10-09T02:55:25;4.75;;;4.25;;
12052;SDS011;6087;48.982;12.064;2023-10-09T02:57:54;4.72;;;4.30;;
12052;SDS011;6087;48.982;12.064;2023-10-09T03:00:30;5.03;;;4.53;;
12052;SDS011;6087;48.982;12.064;2023-10-09T03:03:01;7.20;;;5.07;;
12052;SDS011;6087;48.982;12.064;2023-10-09T03:05:31;7.60;;;4.95;;
12052;SDS011;6087;48.982;12.064;2023-10-09T03:07:58;4.97;;;4.53;;
12052;SDS011;6087;48.982;12.064;2023-10-09T03:10:29;5.07;;;4.57;;
12052;SDS011;6087;48.982;12.064;2023-10-09T03:13:00;5.38;;;4.28;;
12052;SDS011;6087;48.982;12.064;2023-10-09T03:15:30;10.13;;;4.60;;
12052;SDS011;6087;48.982;12.064;2023-10-09T03:18:00;6.95;;;4.88;;
12052;SDS011;6087;48.982;12.064;2023-10-09T03:20:29;8.35;;;4.53;;
12052;SDS011;6087;48.982;12.064;2023-10-09T03:22:56;10.82;;;4.82;;
12052;SDS011;6087;48.982;12.064;2023-10-09T03:25:26;8.85;;;6.10;;
12052;SDS011;6087;48.982;12.064;2023-10-09T03:27:53;6.82;;;4.72;;
12052;SDS011;6087;48.982;12.064;2023-10-09T03:30:22;5.97;;;4.45;;
12052;SDS011;6087;48.982;12.064;2023-10-09T03:32:50;4.60;;;4.20;;
12052;SDS011;6087;48.982;12.064;2023-10-09T03:35:19;5.07;;;4.38;;
12052;SDS011;6087;48.982;12.064;2023-10-09T03:37:56;6.10;;;4.47;;
12052;SDS011;6087;48.982;12.064;2023-10-09T03:40:25;4.50;;;4.07;;
12052;SDS011;6087;48.982;12.064;2023-10-09T03:42:53;5.45;;;4.13;;
12052;SDS011;6087;48.982;12.064;2023-10-09T03:45:20;6.75;;;4.72;;
12052;SDS011;6087;48.982;12.064;2023-10-09T03:47:55;9.02;;;5.07;;
12052;SDS011;6087;48.982;12.064;2023-10-09T03:50:27;5.32;;;4.72;;
12052;SDS011;6087;48.982;12.064;2023-10-09T03:53:01;5.00;;;4.50;;
12052;SDS011;6087;48.982;12.064;2023-10-09T03:55:38;5.40;;;4.70;;
12052;SDS011;6087;48.982;12.064;2023-10-09T03:58:05;5.25;;;4.32;;
12052;SDS011;6087;48.982;12.064;2023-10-09T04:00:40;5.22;;;4.20;;
12052;SDS011;6087;48.982;12.064;2023-10-09T04:03:12;4.35;;;3.92;;
12052;SDS011;6087;48.982;12.064;2023-10-09T04:05:40;7.90;;;4.90;;
12052;SDS011;6087;48.982;12.064;2023-10-09T04:08:08;6.75;;;4.85;;
12052;SDS011;6087;48.982;12.064;2023-10-09T04:10:44;5.15;;;4.60;;
12052;SDS011;6087;48.982;12.064;2023-10-09T04:13:17;6.53;;;4.25;;
12052;SDS011;6087;48.982;12.064;2023-10-09T04:15:49;13.45;;;5.10;;
12052;SDS011;6087;48.982;12.064;2023-10-09T04:18:19;4.97;;;4.50;;
12052;SDS011;6087;48.982;12.064;2023-10-09T04:20:53;6.65;;;4.57;;
12052;SDS011;6087;48.982;12.064;2023-10-09T04:23:38;5.35;;;4.82;;
12052;SDS011;6087;48.982;12.064;2023-10-09T04:26:19;8.20;;;4.55;;
12052;SDS011;6087;48.982;12.064;2023-10-09T04:28:46;5.40;;;4.43;;
12052;SDS011;6087;48.982;12.064;2023-10-09T04:31:17;8.98;;;4.32;;
12052;SDS011;6087;48.982;12.064;2023-10-09T04:37:00;5.00;;;4.25;;
12052;SDS011;6087;48.982;12.064;2023-10-09T04:39:53;4.47;;;3.97;;
12052;SDS011;6087;48.982;12.064;2023-10-09T04:42:37;5.30;;;4.28;;
12052;SDS011;6087;48.982;12.064;2023-10-09T04:45:03;4.90;;;4.30;;
12052;SDS011;6087;48.982;12.064;2023-10-09T04:48:12;6.72;;;4.32;;
12052;SDS011;6087;48.982;12.064;2023-10-09T04:50:59;5.80;;;4.45;;
12052;SDS011;6087;48.982;12.064;2023-10-09T04:53:43;7.40;;;4.78;;
12052;SDS011;6087;48.982;12.064;2023-10-09T04:56:15;8.93;;;5.20;;
12052;SDS011;6087;48.982;12.064;2023-10-09T04:58:42;6.93;;;4.30;;
12052;SDS011;6087;48.982;12.064;2023-10-09T05:01:13;7.80;;;5.63;;
12052;SDS011;6087;48.982;12.064;2023-10-09T05:03:42;6.07;;;4.93;;
12052;SDS011;6087;48.982;12.064;2023-10-09T05:06:12;8.35;;;5.40;;
12052;SDS011;6087;48.982;12.064;2023-10-09T05:09:08;9.73;;;5.40;;
12052;SDS011;6087;48.982;12.064;2023-10-09T05:11:38;8.65;;;5.90;;
12052;SDS011;6087;48.982;12.064;2023-10-09T05:14:41;8.90;;;6.10;;
12052;SDS011;6087;48.982;12.064;2023-10-09T05:17:28;11.15;;;5.47;;
12052;SDS011;6087;48.982;12.064;2023-10-09T05:19:59;9.55;;;5.55;;
12052;SDS011;6087;48.982;12.064;2023-10-09T05:22:41;6.32;;;5.18;;
12052;SDS011;6087;48.982;12.064;2023-10-09T05:25:22;7.63;;;5.30;;
12052;SDS011;6087;48.982;12.064;2023-10-09T05:28:16;6.43;;;4.82;;
12052;SDS011;6087;48.982;12.064;2023-10-09T05:31:01;10.43;;;5.07;;
12052;SDS011;6087;48.982;12.064;2023-10-09T05:33:33;6.97;;;5.05;;
12052;SDS011;6087;48.982;12.064;2023-10-09T05:36:01;6.68;;;5.60;;
12052;SDS011;6087;48.982;12.064;2023-10-09T05:38:43;7.85;;;4.88;;
12052;SDS011;6087;48.982;12.064;2023-10-09T05:41:13;8.88;;;5.55;;
12052;SDS011;6087;48.982;12.064;2023-10-09T05:44:12;9.38;;;5.68;;
12052;SDS011;6087;48.982;12.064;2023-10-09T05:47:02;9.75;;;5.28;;
12052;SDS011;6087;48.982;12.064;2023-10-09T05:49:56;7.13;;;5.40;;
12052;SDS011;6087;48.982;12.064;2023-10-09T05:52:47;7.95;;;5.70;;
12052;SDS011;6087;48.982;12.064;2023-10-09T05:55:45;10.10;;;6.00;;
12052;SDS011;6087;48.982;12.064;2023-10-09T05:58:26;6.65;;;5.20;;
12052;SDS011;6087;48.982;12.064;2023-10-09T06:01:10;7.35;;;4.75;;
12052;SDS011;6087;48.982;12.064;2023-10-09T06:03:54;12.13;;;6.22;;
12052;SDS011;6087;48.982;12.064;2023-10-09T06:06:29;7.10;;;5.18;;
12052;SDS011;6087;48.982;12.064;2023-10-09T06:09:02;7.97;;;5.65;;
12052;SDS011;6087;48.982;12.064;2023-10-09T06:11:55;7.20;;;5.15;;
12052;SDS011;6087;48.982;12.064;2023-10-09T06:14:41;11.60;;;5.82;;
12052;SDS011;6087;48.982;12.064;2023-10-09T06:17:23;11.35;;;5.38;;
12052;SDS011;6087;48.982;12.064;2023-10-09T06:19:51;8.40;;;5.10;;
12052;SDS011;6087;48.982;12.064;2023-10-09T06:22:24;9.77;;;6.10;;
12052;SDS011;6087;48.982;12.064;2023-10-09T06:25:08;11.68;;;5.55;;
12052;SDS011;6087;48.982;12.064;2023-10-09T06:27:38;8.68;;;5.80;;
12052;SDS011;6087;48.982;12.064;2023-10-09T06:30:19;6.35;;;4.25;;
12052;SDS011;6087;48.982;12.064;2023-10-09T06:32:52;6.88;;;4.30;;
12052;SDS011;6087;48.982;12.064;2023-10-09T06:35:33;8.23;;;5.40;;
12052;SDS011;6087;48.982;12.064;2023-10-09T06:38:01;9.40;;;6.15;;
12052;SDS011;6087;48.982;12.064;2023-10-09T06:40:51;6.60;;;5.95;;
12052;SDS011;6087;48.982;12.064;2023-10-09T06:43:37;11.60;;;5.20;;
12052;SDS011;6087;48.982;12.064;2023-10-09T06:46:14;10.38;;;5.55;;
12052;SDS011;6087;48.982;12.064;2023-10-09T06:49:08;12.38;;;6.60;;
12052;SDS011;6087;48.982;12.064;2023-10-09T06:51:54;15.95;;;6.47;;
12052;SDS011;6087;48.982;12.064;2023-10-09T06:54:38;5.97;;;5.18;;
12052;SDS011;6087;48.982;12.064;2023-10-09T06:57:14;7.28;;;5.15;;
12052;SDS011;6087;48.982;12.064;2023-10-09T07:00:04;10.05;;;5.30;;
12052;SDS011;6087;48.982;12.064;2023-10-09T07:02:55;11.05;;;5.45;;
12052;SDS011;6087;48.982;12.064;2023-10-09T07:05:23;11.05;;;5.95;;
12052;SDS011;6087;48.982;12.064;2023-10-09T07:07:56;10.35;;;5.35;;
12052;SDS011;6087;48.982;12.064;2023-10-09T07:10:42;12.85;;;5.00;;
12052;SDS011;6087;48.982;12.064;2023-10-09T07:13:27;10.07;;;5.55;;
12052;SDS011;6087;48.982;12.064;2023-10-09T07:15:56;6.75;;;5.82;;
12052;SDS011;6087;48.982;12.064;2023-10-09T07:18:40;9.18;;;5.40;;
12052;SDS011;6087;48.982;12.064;2023-10-09T07:21:14;11.93;;;5.72;;
12052;SDS011;6087;48.982;12.064;2023-10-09T07:23:52;11.43;;;5.97;;
12052;SDS011;6087;48.982;12.064;2023-10-09T07:26:22;9.98;;;5.82;;
12052;SDS011;6087;48.982;12.064;2023-10-09T07:29:02;12.15;;;5.70;;
12052;SDS011;6087;48.982;12.064;2023-10-09T07:31:48;12.80;;;5.68;;
12052;SDS011;6087;48.982;12.064;2023-10-09T07:34:22;11.70;;;5.85;;
12052;SDS011;6087;48.982;12.064;2023-10-09T07:37:17;11.45;;;5.57;;
12052;SDS011;6087;48.982;12.064;2023-10-09T07:39:47;18.05;;;6.20;;
12052;SDS011;6087;48.982;12.064;2023-10-09T07:42:22;8.23;;;5.22;;
12052;SDS011;6087;48.982;12.064;2023-10-09T07:45:09;9.52;;;5.80;;
12052;SDS011;6087;48.982;12.064;2023-10-09T07:47:55;8.35;;;6.05;;
12052;SDS011;6087;48.982;12.064;2023-10-09T07:50:41;12.95;;;6.43;;
12052;SDS011;6087;48.982;12.064;2023-10-09T07:53:16;10.73;;;5.50;;
12052;SDS011;6087;48.982;12.064;2023-10-09T07:55:51;12.07;;;5.72;;
12052;SDS011;6087;48.982;12.064;2023-10-09T07:58:20;10.55;;;5.47;;
12052;SDS011;6087;48.982;12.064;2023-10-09T08:00:50;17.70;;;6.57;;
12052;SDS011;6087;48.982;12.064;2023-10-09T08:03:33;11.15;;;6.68;;
12052;SDS011;6087;48.982;12.064;2023-10-09T08:06:00;11.70;;;6.05;;
12052;SDS011;6087;48.982;12.064;2023-10-09T08:08:53;12.50;;;5.80;;
12052;SDS011;6087;48.982;12.064;2023-10-09T08:11:38;11.63;;;5.68;;
12052;SDS011;6087;48.982;12.064;2023-10-09T08:14:25;10.85;;;4.72;;
12052;SDS011;6087;48.982;12.064;2023-10-09T08:17:11;11.73;;;6.03;;
12052;SDS011;6087;48.982;12.064;2023-10-09T08:19:45;16.17;;;5.90;;
12052;SDS011;6087;48.982;12.064;2023-10-09T08:22:20;11.90;;;5.57;;
12052;SDS011;6087;48.982;12.064;2023-10-09T08:25:05;16.27;;;6.38;;
12052;SDS011;6087;48.982;12.064;2023-10-09T08:27:33;11.48;;;7.05;;
12052;SDS011;6087;48.982;12.064;2023-10-09T08:30:20;19.90;;;6.00;;
12052;SDS011;6087;48.982;12.064;2023-10-09T08:33:07;8.77;;;4.60;;
12052;SDS011;6087;48.982;12.064;2023-10-09T08:35:49;8.38;;;4.90;;
12052;SDS011;6087;48.982;12.064;2023-10-09T08:38:16;11.18;;;4.95;;
12052;SDS011;6087;48.982;12.064;2023-10-09T08:40:48;9.60;;;4.72;;
12052;SDS011;6087;48.982;12.064;2023-10-09T08:43:23;10.70;;;4.05;;
12052;SDS011;6087;48.982;12.064;2023-10-09T08:45:53;14.88;;;4.63;;
12052;SDS011;6087;48.982;12.064;2023-10-09T08:48:26;9.38;;;4.18;;
12052;SDS011;6087;48.982;12.064;2023-10-09T08:50:55;9.65;;;4.30;;
12052;SDS011;6087;48.982;12.064;2023-10-09T08:53:23;9.50;;;4.88;;
12052;SDS011;6087;48.982;12.064;2023-10-09T08:55:52;11.55;;;4.97;;
12052;SDS011;6087;48.982;12.064;2023-10-09T08:58:20;12.18;;;5.28;;
12052;SDS011;6087;48.982;12.064;2023-10-09T09:00:49;8.88;;;5.00;;
12052;SDS011;6087;48.982;12.064;2023-10-09T09:03:17;11.40;;;4.68;;
12052;SDS011;6087;48.982;12.064;2023-10-09T09:05:48;10.90;;;4.57;;
12052;SDS011;6087;48.982;12.064;2023-10-09T09:08:27;8.48;;;4.25;;
12052;SDS011;6087;48.982;12.064;2023-10-09T09:10:56;11.75;;;4.65;;
12052;SDS011;6087;48.982;12.064;2023-10-09T09:13:36;8.23;;;3.92;;
12052;SDS011;6087;48.982;12.064;2023-10-09T09:16:11;10.90;;;4.68;;
12052;SDS011;6087;48.982;12.064;2023-10-09T09:18:48;10.05;;;4.82;;
12052;SDS011;6087;48.982;12.064;2023-10-09T09:21:21;13.88;;;4.78;;
12052;SDS011;6087;48.982;12.064;2023-10-09T09:23:56;9.50;;;4.72;;
12052;SDS011;6087;48.982;12.064;2023-10-09T09:26:36;12.88;;;4.45;;
12052;SDS011;6087;48.982;12.064;2023-10-09T09:29:10;11.15;;;5.30;;
12052;SDS011;6087;48.982;12.064;2023-10-09T09:31:37;11.15;;;5.25;;
12052;SDS011;6087;48.982;12.064;2023-10-09T09:34:06;12.82;;;4.80;;
12052;SDS011;6087;48.982;12.064;2023-10-09T09:36:51;10.52;;;4.65;;
12052;SDS011;6087;48.982;12.064;2023-10-09T09:39:24;9.95;;;5.32;;
12052;SDS011;6087;48.982;12.064;2023-10-09T09:41:55;12.45;;;4.93;;
12052;SDS011;6087;48.982;12.064;2023-10-09T09:44:30;16.42;;;5.68;;
12052;SDS011;6087;48.982;12.064;2023-10-09T09:46:59;14.07;;;4.93;;
12052;SDS011;6087;48.982;12.064;2023-10-09T09:49:29;14.20;;;5.18;;
12052;SDS011;6087;48.982;12.064;2023-10-09T09:52:00;14.48;;;5.70;;
12052;SDS011;6087;48.982;12.064;2023-10-09T09:54:36;14.77;;;5.20;;
12052;SDS011;6087;48.982;12.064;2023-10-09T09:57:04;11.23;;;4.03;;
12052;SDS011;6087;48.982;12.064;2023-10-09T09:59:37;11.27;;;5.15;;
12052;SDS011;6087;48.982;12.064;2023-10-09T10:02:19;8.68;;;4.25;;
12052;SDS011;6087;48.982;12.064;2023-10-09T10:04:51;9.55;;;4.43;;
12052;SDS011;6087;48.982;12.064;2023-10-09T10:07:22;16.00;;;5.18;;
12052;SDS011;6087;48.982;12.064;2023-10-09T10:09:52;13.20;;;5.00;;
12052;SDS011;6087;48.982;12.064;2023-10-09T10:18:25;12.63;;;5.53;;
12052;SDS011;6087;48.982;12.064;2023-10-09T10:21:12;12.07;;;4.65;;
12052;SDS011;6087;48.982;12.064;2023-10-09T10:23:43;12.63;;;4.55;;
12052;SDS011;6087;48.982;12.064;2023-10-09T10:26:17;13.55;;;6.18;;
12052;SDS011;6087;48.982;12.064;2023-10-09T10:31:52;7.85;;;3.85;;
12052;SDS011;6087;48.982;12.064;2023-10-09T10:34:21;9.57;;;3.97;;
12052;SDS011;6087;48.982;12.064;2023-10-09T10:36:49;11.88;;;4.60;;
12052;SDS011;6087;48.982;12.064;2023-10-09T10:39:17;12.70;;;4.32;;
12052;SDS011;6087;48.982;12.064;2023-10-09T10:42:02;13.85;;;4.20;;
12052;SDS011;6087;48.982;12.064;2023-10-09T10:44:34;14.05;;;4.68;;
12052;SDS011;6087;48.982;12.064;2023-10-09T10:47:02;13.35;;;4.57;;
12052;SDS011;6087;48.982;12.064;2023-10-09T10:49:30;16.15;;;4.68;;
12052;SDS011;6087;48.982;12.064;2023-10-09T10:52:03;13.20;;;5.05;;
12052;SDS011;6087;48.982;12.064;2023-10-09T10:54:42;9.95;;;4.78;;
12052;SDS011;6087;48.982;12.064;2023-10-09T10:57:17;9.68;;;4.82;;
12052;SDS011;6087;48.982;12.064;2023-10-09T11:00:17;12.73;;;5.93;;
12052;SDS011;6087;48.982;12.064;2023-10-09T11:02:57;14.77;;;4.30;;
12052;SDS011;6087;48.982;12.064;2023-10-09T11:05:38;12.80;;;4.72;;
12052;SDS011;6087;48.982;12.064;2023-10-09T11:08:09;11.20;;;4.93;;
12052;SDS011;6087;48.982;12.064;2023-10-09T11:10:45;16.00;;;5.28;;
12052;SDS011;6087;48.982;12.064;2023-10-09T11:13:26;8.35;;;4.55;;
12052;SDS011;6087;48.982;12.064;2023-10-09T11:15:58;16.52;;;5.03;;
12052;SDS011;6087;48.982;12.064;2023-10-09T11:18:39;10.00;;;4.35;;
12052;SDS011;6087;48.982;12.064;2023-10-09T11:21:11;10.95;;;4.55;;
12052;SDS011;6087;48.982;12.064;2023-10-09T11:24:05;20.23;;;5.43;;
12052;SDS011;6087;48.982;12.064;2023-10-09T11:26:51;15.10;;;5.63;;
12052;SDS011;6087;48.982;12.064;2023-10-09T11:29:23;13.35;;;4.47;;
12052;SDS011;6087;48.982;12.064;2023-10-09T11:31:57;11.13;;;4.30;;
12052;SDS011;6087;48.982;12.064;2023-10-09T11:34:25;17.80;;;4.53;;
12052;SDS011;6087;48.982;12.064;2023-10-09T11:37:00;15.27;;;4.78;;
12052;SDS011;6087;48.982;12.064;2023-10-09T11:39:28;14.93;;;4.72;;
12052;SDS011;6087;48.982;12.064;2023-10-09T11:42:17;14.27;;;4.95;;
12052;SDS011;6087;48.982;12.064;2023-10-09T11:45:02;18.45;;;5.30;;
12052;SDS011;6087;48.982;12.064;2023-10-09T11:47:44;13.43;;;4.82;;
12052;SDS011;6087;48.982;12.064;2023-10-09T11:50:19;16.33;;;4.47;;
12052;SDS011;6087;48.982;12.064;2023-10-09T11:52:57;14.50;;;4.95;;
12052;SDS011;6087;48.982;12.064;2023-10-09T11:55:58;13.35;;;4.28;;
12052;SDS011;6087;48.982;12.064;2023-10-09T11:58:25;15.50;;;4.28;;
12052;SDS011;6087;48.982;12.064;2023-10-09T12:00:53;13.07;;;4.65;;
12052;SDS011;6087;48.982;12.064;2023-10-09T12:03:24;15.27;;;4.30;;
12052;SDS011;6087;48.982;12.064;2023-10-09T12:05:55;16.08;;;4.68;;
12052;SDS011;6087;48.982;12.064;2023-10-09T12:08:23;11.35;;;5.78;;
12052;SDS011;6087;48.982;12.064;2023-10-09T12:10:53;15.90;;;4.75;;
12052;SDS011;6087;48.982;12.064;2023-10-09T12:13:21;12.77;;;4.25;;
12052;SDS011;6087;48.982;12.064;2023-10-09T12:15:48;9.77;;;4.13;;
12052;SDS011;6087;48.982;12.064;2023-10-09T12:18:18;11.93;;;4.20;;
12052;SDS011;6087;48.982;12.064;2023-10-09T12:20:47;13.23;;;5.07;;
12052;SDS011;6087;48.982;12.064;2023-10-09T12:23:17;18.95;;;4.57;;
12052;SDS011;6087;48.982;12.064;2023-10-09T12:25:45;10.70;;;4.65;;
12052;SDS011;6087;48.982;12.064;2023-10-09T12:28:15;13.27;;;3.92;;
12052;SDS011;6087;48.982;12.064;2023-10-09T12:30:45;15.45;;;4.50;;
12052;SDS011;6087;48.982;12.064;2023-10-09T12:33:15;16.90;;;4.38;;
12052;SDS011;6087;48.982;12.064;2023-10-09T12:35:45;11.88;;;4.45;;
12052;SDS011;6087;48.982;12.064;2023-10-09T12:38:12;15.20;;;4.30;;
12052;SDS011;6087;48.982;12.064;2023-10-09T12:40:43;16.83;;;5.13;;
12052;SDS011;6087;48.982;12.064;2023-10-09T12:43:15;13.45;;;5.30;;
12052;SDS011;6087;48.982;12.064;2023-10-09T12:45:44;13.18;;;4.32;;
12052;SDS011;6087;48.982;12.064;2023-10-09T12:48:11;15.13;;;4.95;;
12052;SDS011;6087;48.982;12.064;2023-10-09T12:50:41;10.40;;;4.68;;
12052;SDS011;6087;48.982;12.064;2023-10-09T12:53:09;14.35;;;4.70;;
12052;SDS011;6087;48.982;12.064;2023-10-09T12:55:42;12.88;;;4.38;;
12052;SDS011;6087;48.982;12.064;2023-10-09T12:58:10;15.52;;;4.10;;
12052;SDS011;6087;48.982;12.064;2023-10-09T13:00:39;17.63;;;4.78;;
12052;SDS011;6087;48.982;12.064;2023-10-09T13:03:14;14.88;;;4.78;;
12052;SDS011;6087;48.982;12.064;2023-10-09T13:05:47;14.45;;;4.10;;
12052;SDS011;6087;48.982;12.064;2023-10-09T13:08:21;11.30;;;3.83;;
12052;SDS011;6087;48.982;12.064;2023-10-09T13:10:50;12.07;;;5.25;;
12052;SDS011;6087;48.982;12.064;2023-10-09T13:13:24;10.70;;;3.95;;
12052;SDS011;6087;48.982;12.064;2023-10-09T13:16:04;13.88;;;4.55;;
12052;SDS011;6087;48.982;12.064;2023-10-09T13:18:37;12.30;;;4.40;;
12052;SDS011;6087;48.982;12.064;2023-10-09T13:21:06;18.45;;;5.03;;
12052;SDS011;6087;48.982;12.064;2023-10-09T13:23:33;15.98;;;4.93;;
12052;SDS011;6087;48.982;12.064;2023-10-09T13:26:11;7.80;;;3.72;;
12052;SDS011;6087;48.982;12.064;2023-10-09T13:28:52;16.00;;;4.30;;
12052;SDS011;6087;48.982;12.064;2023-10-09T13:31:23;10.88;;;4.30;;
12052;SDS011;6087;48.982;12.064;2023-10-09T13:33:51;10.55;;;4.43;;
12052;SDS011;6087;48.982;12.064;2023-10-09T13:36:21;15.68;;;4.53;;
12052;SDS011;6087;48.982;12.064;2023-10-09T13:38:57;11.23;;;4.57;;
12052;SDS011;6087;48.982;12.064;2023-10-09T13:41:27;12.25;;;4.25;;
12052;SDS011;6087;48.982;12.064;2023-10-09T13:43:54;11.95;;;3.97;;
12052;SDS011;6087;48.982;12.064;2023-10-09T13:46:22;17.80;;;4.40;;
12052;SDS011;6087;48.982;12.064;2023-10-09T13:48:49;16.67;;;4.80;;
12052;SDS011;6087;48.982;12.064;2023-10-09T13:51:22;14.77;;;4.60;;
12052;SDS011;6087;48.982;12.064;2023-10-09T13:53:49;13.73;;;5.30;;
12052;SDS011;6087;48.982;12.064;2023-10-09T13:56:22;8.35;;;4.68;;
12052;SDS011;6087;48.982;12.064;2023-10-09T13:58:52;11.27;;;4.80;;
12052;SDS011;6087;48.982;12.064;2023-10-09T14:01:20;11.32;;;3.97;;
12052;SDS011;6087;48.982;12.064;2023-10-09T14:03:53;14.45;;;4.30;;
12052;SDS011;6087;48.982;12.064;2023-10-09T14:06:22;11.60;;;3.85;;
12052;SDS011;6087;48.982;12.064;2023-10-09T14:08:57;13.70;;;4.13;;
12052;SDS011;6087;48.982;12.064;2023-10-09T14:11:24;17.60;;;4.32;;
12052;SDS011;6087;48.982;12.064;2023-10-09T14:13:52;12.27;;;4.45;;
12052;SDS011;6087;48.982;12.064;2023-10-09T14:16:18;9.50;;;3.50;;
12052;SDS011;6087;48.982;12.064;2023-10-09T14:18:52;10.93;;;4.32;;
12052;SDS011;6087;48.982;12.064;2023-10-09T14:21:23;13.30;;;3.80;;
12052;SDS011;6087;48.982;12.064;2023-10-09T14:23:53;19.75;;;4.03;;
12052;SDS011;6087;48.982;12.064;2023-10-09T14:26:22;14.93;;;4.40;;
12052;SDS011;6087;48.982;12.064;2023-10-09T14:28:50;18.70;;;4.20;;
12052;SDS011;6087;48.982;12.064;2023-10-09T14:31:18;12.23;;;3.63;;
12052;SDS011;6087;48.982;12.064;2023-10-09T14:33:51;16.98;;;4.05;;
12052;SDS011;6087;48.982;12.064;2023-10-09T14:36:18;12.98;;;4.07;;
12052;SDS011;6087;48.982;12.064;2023-10-09T14:38:48;13.30;;;3.75;;
12052;SDS011;6087;48.982;12.064;2023-10-09T14:41:18;15.82;;;4.45;;
12052;SDS011;6087;48.982;12.064;2023-10-09T14:43:48;21.25;;;4.72;;
12052;SDS011;6087;48.982;12.064;2023-10-09T14:46:15;13.38;;;4.82;;
12052;SDS011;6087;48.982;12.064;2023-10-09T14:48:48;17.08;;;3.58;;
12052;SDS011;6087;48.982;12.064;2023-10-09T14:51:17;13.88;;;4.13;;
12052;SDS011;6087;48.982;12.064;2023-10-09T14:53:53;13.00;;;3.72;;
12052;SDS011;6087;48.982;12.064;2023-10-09T14:56:22;13.77;;;3.20;;
12052;SDS011;6087;48.982;12.064;2023-10-09T14:58:54;8.55;;;3.92;;
12052;SDS011;6087;48.982;12.064;2023-10-09T15:01:23;7.07;;;3.08;;
12052;SDS011;6087;48.982;12.064;2023-10-09T15:03:53;12.93;;;4.32;;
12052;SDS011;6087;48.982;12.064;2023-10-09T15:06:25;16.40;;;3.97;;
12052;SDS011;6087;48.982;12.064;2023-10-09T15:08:56;9.02;;;3.40;;
12052;SDS011;6087;48.982;12.064;2023-10-09T15:11:25;9.85;;;3.50;;
12052;SDS011;6087;48.982;12.064;2023-10-09T15:13:53;10.32;;;3.47;;
12052;SDS011;6087;48.982;12.064;2023-10-09T15:16:23;10.50;;;3.60;;
12052;SDS011;6087;48.982;12.064;2023-10-09T15:18:53;9.50;;;3.72;;
12052;SDS011;6087;48.982;12.064;2023-10-09T15:21:22;12.43;;;4.25;;
12052;SDS011;6087;48.982;12.064;2023-10-09T15:23:51;11.60;;;3.92;;
12052;SDS011;6087;48.982;12.064;2023-10-09T15:26:20;10.07;;;3.88;;
12052;SDS011;6087;48.982;12.064;2023-10-09T15:28:49;16.33;;;4.75;;
12052;SDS011;6087;48.982;12.064;2023-10-09T15:31:16;10.07;;;3.78;;
12052;SDS011;6087;48.982;12.064;2023-10-09T15:33:46;11.60;;;3.63;;
12052;SDS011;6087;48.982;12.064;2023-10-09T15:36:17;14.88;;;4.53;;